sensor_id;sensor_type;location;lat;lon;timestamp;temperature;humidity
3860;DHT22;1945;52.036;8.614;2023-04-15T00:02:14;6.50;99.90
3860;DHT22;1945;52.036;8.614;2023-04-15T00:04:41;6.20;99.90
3860;DHT22;1945;52.036;8.614;2023-04-15T00:07:09;6.20;99.90
3860;DHT22;1945;52.036;8.614;2023-04-15T00:09:35;6.70;99.90
3860;DHT22;1945;52.036;8.614;2023-04-15T00:12:02;6.60;99.90
3860;DHT22;1945;52.036;8.614;2023-04-15T00:14:29;6.20;99.90
3860;DHT22;1945;52.036;8.614;2023-04-15T00:16:56;6.60;99.90
3860;DHT22;1945;52.036;8.614;2023-04-15T00:19:22;6.50;99.90
3860;DHT22;1945;52.036;8.614;2023-04-15T00:21:49;6.50;99.90
3860;DHT22;1945;52.036;8.614;2023-04-15T00:24:17;6.00;99.90
3860;DHT22;1945;52.036;8.614;2023-04-15T00:26:44;6.60;99.90
3860;DHT22;1945;52.036;8.614;2023-04-15T00:29:11;6.00;99.90
3860;DHT22;1945;52.036;8.614;2023-04-15T00:31:38;6.10;99.90
3860;DHT22;1945;52.036;8.614;2023-04-15T00:34:05;6.40;99.90
3860;DHT22;1945;52.036;8.614;2023-04-15T00:36:32;6.40;99.90
3860;DHT22;1945;52.036;8.614;2023-04-15T00:38:59;6.50;99.90
3860;DHT22;1945;52.036;8.614;2023-04-15T00:41:28;6.20;99.90
3860;DHT22;1945;52.036;8.614;2023-04-15T00:43:56;6.60;99.90
3860;DHT22;1945;52.036;8.614;2023-04-15T00:46:23;6.20;99.90
3860;DHT22;1945;52.036;8.614;2023-04-15T00:48:51;6.70;1.00
3860;DHT22;1945;52.036;8.614;2023-04-15T00:51:17;6.60;1.00
3860;DHT22;1945;52.036;8.614;2023-04-15T00:53:44;6.00;1.00
3860;DHT22;1945;52.036;8.614;2023-04-15T00:56:11;6.40;1.00
3860;DHT22;1945;52.036;8.614;2023-04-15T00:58:40;6.00;1.00
3860;DHT22;1945;52.036;8.614;2023-04-15T01:01:07;6.60;1.00
3860;DHT22;1945;52.036;8.614;2023-04-15T01:03:34;6.60;1.00
3860;DHT22;1945;52.036;8.614;2023-04-15T01:06:01;6.60;1.00
3860;DHT22;1945;52.036;8.614;2023-04-15T01:08:28;6.00;1.00
3860;DHT22;1945;52.036;8.614;2023-04-15T01:10:56;6.50;99.90
3860;DHT22;1945;52.036;8.614;2023-04-15T01:13:24;6.50;1.00
3860;DHT22;1945;52.036;8.614;2023-04-15T01:15:52;6.60;1.00
3860;DHT22;1945;52.036;8.614;2023-04-15T01:18:20;6.50;1.00
3860;DHT22;1945;52.036;8.614;2023-04-15T01:20:48;6.40;1.00
3860;DHT22;1945;52.036;8.614;2023-04-15T01:23:14;5.80;1.00
3860;DHT22;1945;52.036;8.614;2023-04-15T01:25:44;5.80;1.00
3860;DHT22;1945;52.036;8.614;2023-04-15T01:28:11;6.30;1.00
3860;DHT22;1945;52.036;8.614;2023-04-15T01:30:38;5.70;1.00
3860;DHT22;1945;52.036;8.614;2023-04-15T01:33:05;5.80;1.00
3860;DHT22;1945;52.036;8.614;2023-04-15T01:35:32;5.80;1.00
3860;DHT22;1945;52.036;8.614;2023-04-15T01:38:04;6.30;1.00
3860;DHT22;1945;52.036;8.614;2023-04-15T01:40:31;6.30;1.00
3860;DHT22;1945;52.036;8.614;2023-04-15T01:42:59;5.90;1.00
3860;DHT22;1945;52.036;8.614;2023-04-15T01:45:26;6.40;1.00
3860;DHT22;1945;52.036;8.614;2023-04-15T01:47:53;6.00;1.00
3860;DHT22;1945;52.036;8.614;2023-04-15T01:50:20;6.50;1.00
3860;DHT22;1945;52.036;8.614;2023-04-15T01:52:47;6.40;1.00
3860;DHT22;1945;52.036;8.614;2023-04-15T01:55:14;6.40;1.00
3860;DHT22;1945;52.036;8.614;2023-04-15T01:57:41;6.40;1.00
3860;DHT22;1945;52.036;8.614;2023-04-15T02:00:09;6.50;1.00
3860;DHT22;1945;52.036;8.614;2023-04-15T02:02:37;6.00;1.00
3860;DHT22;1945;52.036;8.614;2023-04-15T02:05:04;6.40;1.00
3860;DHT22;1945;52.036;8.614;2023-04-15T02:07:31;5.90;1.00
3860;DHT22;1945;52.036;8.614;2023-04-15T02:09:57;5.90;1.00
3860;DHT22;1945;52.036;8.614;2023-04-15T02:12:24;6.50;1.00
3860;DHT22;1945;52.036;8.614;2023-04-15T02:14:51;6.40;1.00
3860;DHT22;1945;52.036;8.614;2023-04-15T02:17:19;6.40;1.00
3860;DHT22;1945;52.036;8.614;2023-04-15T02:19:46;6.50;1.00
3860;DHT22;1945;52.036;8.614;2023-04-15T02:22:13;6.60;1.00
3860;DHT22;1945;52.036;8.614;2023-04-15T02:24:43;6.60;1.00
3860;DHT22;1945;52.036;8.614;2023-04-15T02:27:10;6.60;1.00
3860;DHT22;1945;52.036;8.614;2023-04-15T02:29:37;6.60;1.00
3860;DHT22;1945;52.036;8.614;2023-04-15T02:32:04;6.50;1.00
3860;DHT22;1945;52.036;8.614;2023-04-15T02:34:32;6.10;1.00
3860;DHT22;1945;52.036;8.614;2023-04-15T02:36:59;6.00;1.00
3860;DHT22;1945;52.036;8.614;2023-04-15T02:39:25;6.50;1.00
3860;DHT22;1945;52.036;8.614;2023-04-15T02:41:52;6.40;1.00
3860;DHT22;1945;52.036;8.614;2023-04-15T02:44:19;6.40;1.00
3860;DHT22;1945;52.036;8.614;2023-04-15T02:46:47;6.40;1.00
3860;DHT22;1945;52.036;8.614;2023-04-15T02:49:16;6.30;1.00
3860;DHT22;1945;52.036;8.614;2023-04-15T02:51:44;5.80;1.00
3860;DHT22;1945;52.036;8.614;2023-04-15T02:54:14;6.30;1.00
3860;DHT22;1945;52.036;8.614;2023-04-15T02:56:40;5.80;1.00
3860;DHT22;1945;52.036;8.614;2023-04-15T02:59:07;5.70;1.00
3860;DHT22;1945;52.036;8.614;2023-04-15T03:01:33;6.10;1.00
3860;DHT22;1945;52.036;8.614;2023-04-15T03:04:00;5.70;1.00
3860;DHT22;1945;52.036;8.614;2023-04-15T03:06:27;6.20;1.00
3860;DHT22;1945;52.036;8.614;2023-04-15T03:08:55;5.70;1.00
3860;DHT22;1945;52.036;8.614;2023-04-15T03:11:22;6.10;1.00
3860;DHT22;1945;52.036;8.614;2023-04-15T03:13:48;5.80;1.00
3860;DHT22;1945;52.036;8.614;2023-04-15T03:16:15;5.80;1.00
3860;DHT22;1945;52.036;8.614;2023-04-15T03:18:42;6.30;1.00
3860;DHT22;1945;52.036;8.614;2023-04-15T03:21:09;5.80;1.00
3860;DHT22;1945;52.036;8.614;2023-04-15T03:23:35;6.30;1.00
3860;DHT22;1945;52.036;8.614;2023-04-15T03:26:04;5.80;1.00
3860;DHT22;1945;52.036;8.614;2023-04-15T03:28:31;5.80;1.00
3860;DHT22;1945;52.036;8.614;2023-04-15T03:30:58;5.80;1.00
3860;DHT22;1945;52.036;8.614;2023-04-15T03:33:25;6.20;1.00
3860;DHT22;1945;52.036;8.614;2023-04-15T03:35:52;6.30;1.00
3860;DHT22;1945;52.036;8.614;2023-04-15T03:38:18;5.80;1.00
3860;DHT22;1945;52.036;8.614;2023-04-15T03:40:46;5.90;1.00
3860;DHT22;1945;52.036;8.614;2023-04-15T03:43:14;5.80;1.00
3860;DHT22;1945;52.036;8.614;2023-04-15T03:45:41;5.80;1.00
3860;DHT22;1945;52.036;8.614;2023-04-15T03:48:07;5.80;1.00
3860;DHT22;1945;52.036;8.614;2023-04-15T03:50:34;5.80;1.00
3860;DHT22;1945;52.036;8.614;2023-04-15T03:53:01;5.80;1.00
3860;DHT22;1945;52.036;8.614;2023-04-15T03:55:27;5.70;1.00
3860;DHT22;1945;52.036;8.614;2023-04-15T03:57:54;6.20;1.00
3860;DHT22;1945;52.036;8.614;2023-04-15T04:00:22;5.70;1.00
3860;DHT22;1945;52.036;8.614;2023-04-15T04:02:49;5.70;1.00
3860;DHT22;1945;52.036;8.614;2023-04-15T04:05:16;6.10;1.00
3860;DHT22;1945;52.036;8.614;2023-04-15T04:07:43;6.00;1.00
3860;DHT22;1945;52.036;8.614;2023-04-15T04:10:10;5.60;1.00
3860;DHT22;1945;52.036;8.614;2023-04-15T04:12:36;5.50;1.00
3860;DHT22;1945;52.036;8.614;2023-04-15T04:15:03;5.50;1.00
3860;DHT22;1945;52.036;8.614;2023-04-15T04:17:33;5.50;1.00
3860;DHT22;1945;52.036;8.614;2023-04-15T04:20:00;5.90;1.00
3860;DHT22;1945;52.036;8.614;2023-04-15T04:22:27;6.00;1.00
3860;DHT22;1945;52.036;8.614;2023-04-15T04:24:53;5.90;1.00
3860;DHT22;1945;52.036;8.614;2023-04-15T04:27:20;6.00;1.00
3860;DHT22;1945;52.036;8.614;2023-04-15T04:29:47;5.60;1.00
3860;DHT22;1945;52.036;8.614;2023-04-15T04:32:14;6.00;1.00
3860;DHT22;1945;52.036;8.614;2023-04-15T04:34:42;5.50;1.00
3860;DHT22;1945;52.036;8.614;2023-04-15T04:37:09;5.60;1.00
3860;DHT22;1945;52.036;8.614;2023-04-15T04:39:35;6.10;1.00
3860;DHT22;1945;52.036;8.614;2023-04-15T04:42:02;6.10;1.00
3860;DHT22;1945;52.036;8.614;2023-04-15T04:44:29;6.10;1.00
3860;DHT22;1945;52.036;8.614;2023-04-15T04:46:55;6.10;1.00
3860;DHT22;1945;52.036;8.614;2023-04-15T04:49:22;6.20;1.00
3860;DHT22;1945;52.036;8.614;2023-04-15T04:51:50;6.10;1.00
3860;DHT22;1945;52.036;8.614;2023-04-15T04:54:17;5.70;1.00
3860;DHT22;1945;52.036;8.614;2023-04-15T04:56:44;5.70;1.00
3860;DHT22;1945;52.036;8.614;2023-04-15T04:59:11;6.10;1.00
3860;DHT22;1945;52.036;8.614;2023-04-15T05:01:38;6.30;1.00
3860;DHT22;1945;52.036;8.614;2023-04-15T05:04:05;6.40;1.00
3860;DHT22;1945;52.036;8.614;2023-04-15T05:06:32;6.30;1.00
3860;DHT22;1945;52.036;8.614;2023-04-15T05:09:02;6.40;1.00
3860;DHT22;1945;52.036;8.614;2023-04-15T05:11:29;5.80;1.00
3860;DHT22;1945;52.036;8.614;2023-04-15T05:13:56;6.50;1.00
3860;DHT22;1945;52.036;8.614;2023-04-15T05:16:24;6.40;1.00
3860;DHT22;1945;52.036;8.614;2023-04-15T05:18:51;6.40;1.00
3860;DHT22;1945;52.036;8.614;2023-04-15T05:21:18;6.40;1.00
3860;DHT22;1945;52.036;8.614;2023-04-15T05:23:44;6.00;1.00
3860;DHT22;1945;52.036;8.614;2023-04-15T05:26:12;6.60;1.00
3860;DHT22;1945;52.036;8.614;2023-04-15T05:28:39;6.70;1.00
3860;DHT22;1945;52.036;8.614;2023-04-15T05:31:06;6.30;1.00
3860;DHT22;1945;52.036;8.614;2023-04-15T05:33:33;6.70;1.00
3860;DHT22;1945;52.036;8.614;2023-04-15T05:36:00;6.70;1.00
3860;DHT22;1945;52.036;8.614;2023-04-15T05:38:26;6.70;1.00
3860;DHT22;1945;52.036;8.614;2023-04-15T05:40:53;6.80;1.00
3860;DHT22;1945;52.036;8.614;2023-04-15T05:43:21;6.80;1.00
3860;DHT22;1945;52.036;8.614;2023-04-15T05:45:48;7.00;1.00
3860;DHT22;1945;52.036;8.614;2023-04-15T05:48:15;7.10;1.00
3860;DHT22;1945;52.036;8.614;2023-04-15T05:50:42;7.00;1.00
3860;DHT22;1945;52.036;8.614;2023-04-15T05:53:08;6.60;1.00
3860;DHT22;1945;52.036;8.614;2023-04-15T05:55:36;6.70;1.00
3860;DHT22;1945;52.036;8.614;2023-04-15T05:58:02;6.70;1.00
3860;DHT22;1945;52.036;8.614;2023-04-15T06:00:30;7.10;1.00
3860;DHT22;1945;52.036;8.614;2023-04-15T06:02:57;7.30;1.00
3860;DHT22;1945;52.036;8.614;2023-04-15T06:05:24;7.30;1.00
3860;DHT22;1945;52.036;8.614;2023-04-15T06:07:51;7.50;1.00
3860;DHT22;1945;52.036;8.614;2023-04-15T06:10:17;7.00;1.00
3860;DHT22;1945;52.036;8.614;2023-04-15T06:12:45;7.00;1.00
3860;DHT22;1945;52.036;8.614;2023-04-15T06:15:12;7.00;1.00
3860;DHT22;1945;52.036;8.614;2023-04-15T06:17:39;7.40;1.00
3860;DHT22;1945;52.036;8.614;2023-04-15T06:20:07;7.40;1.00
3860;DHT22;1945;52.036;8.614;2023-04-15T06:22:35;7.00;1.00
3860;DHT22;1945;52.036;8.614;2023-04-15T06:25:02;7.60;1.00
3860;DHT22;1945;52.036;8.614;2023-04-15T06:27:29;7.00;1.00
3860;DHT22;1945;52.036;8.614;2023-04-15T06:29:56;7.10;1.00
3860;DHT22;1945;52.036;8.614;2023-04-15T06:32:23;7.50;1.00
3860;DHT22;1945;52.036;8.614;2023-04-15T06:34:51;7.60;1.00
3860;DHT22;1945;52.036;8.614;2023-04-15T06:37:18;7.50;1.00
3860;DHT22;1945;52.036;8.614;2023-04-15T06:39:45;7.60;1.00
3860;DHT22;1945;52.036;8.614;2023-04-15T06:42:11;7.50;1.00
3860;DHT22;1945;52.036;8.614;2023-04-15T06:44:39;7.60;1.00
3860;DHT22;1945;52.036;8.614;2023-04-15T06:47:06;7.00;1.00
3860;DHT22;1945;52.036;8.614;2023-04-15T06:49:33;7.10;1.00
3860;DHT22;1945;52.036;8.614;2023-04-15T06:52:01;7.20;1.00
3860;DHT22;1945;52.036;8.614;2023-04-15T06:54:29;7.50;1.00
3860;DHT22;1945;52.036;8.614;2023-04-15T06:56:56;7.10;1.00
3860;DHT22;1945;52.036;8.614;2023-04-15T06:59:23;7.50;1.00
3860;DHT22;1945;52.036;8.614;2023-04-15T07:01:49;7.10;1.00
3860;DHT22;1945;52.036;8.614;2023-04-15T07:04:16;7.40;1.00
3860;DHT22;1945;52.036;8.614;2023-04-15T07:06:43;7.10;1.00
3860;DHT22;1945;52.036;8.614;2023-04-15T07:09:12;7.00;1.00
3860;DHT22;1945;52.036;8.614;2023-04-15T07:11:39;7.00;1.00
3860;DHT22;1945;52.036;8.614;2023-04-15T07:14:06;7.00;1.00
3860;DHT22;1945;52.036;8.614;2023-04-15T07:16:33;7.60;1.00
3860;DHT22;1945;52.036;8.614;2023-04-15T07:19:00;7.40;1.00
3860;DHT22;1945;52.036;8.614;2023-04-15T07:21:26;7.50;1.00
3860;DHT22;1945;52.036;8.614;2023-04-15T07:23:54;7.00;1.00
3860;DHT22;1945;52.036;8.614;2023-04-15T07:26:22;7.00;1.00
3860;DHT22;1945;52.036;8.614;2023-04-15T07:28:49;7.00;1.00
3860;DHT22;1945;52.036;8.614;2023-04-15T07:31:16;7.10;1.00
3860;DHT22;1945;52.036;8.614;2023-04-15T07:33:42;7.20;1.00
3860;DHT22;1945;52.036;8.614;2023-04-15T07:36:09;7.60;1.00
3860;DHT22;1945;52.036;8.614;2023-04-15T07:38:36;7.70;1.00
3860;DHT22;1945;52.036;8.614;2023-04-15T07:41:03;7.70;1.00
3860;DHT22;1945;52.036;8.614;2023-04-15T07:43:31;7.10;1.00
3860;DHT22;1945;52.036;8.614;2023-04-15T07:45:58;7.60;1.00
3860;DHT22;1945;52.036;8.614;2023-04-15T07:48:25;7.60;1.00
3860;DHT22;1945;52.036;8.614;2023-04-15T07:50:52;7.20;1.00
3860;DHT22;1945;52.036;8.614;2023-04-15T07:53:19;7.20;1.00
3860;DHT22;1945;52.036;8.614;2023-04-15T07:55:46;7.60;1.00
3860;DHT22;1945;52.036;8.614;2023-04-15T07:58:13;7.80;1.00
3860;DHT22;1945;52.036;8.614;2023-04-15T08:00:41;7.40;1.00
3860;DHT22;1945;52.036;8.614;2023-04-15T08:03:08;8.00;1.00
3860;DHT22;1945;52.036;8.614;2023-04-15T08:05:34;7.50;1.00
3860;DHT22;1945;52.036;8.614;2023-04-15T08:08:01;7.50;1.00
3860;DHT22;1945;52.036;8.614;2023-04-15T08:10:28;8.00;1.00
3860;DHT22;1945;52.036;8.614;2023-04-15T08:12:56;8.00;1.00
3860;DHT22;1945;52.036;8.614;2023-04-15T08:15:22;7.90;1.00
3860;DHT22;1945;52.036;8.614;2023-04-15T08:17:51;8.10;1.00
3860;DHT22;1945;52.036;8.614;2023-04-15T08:20:18;7.50;1.00
3860;DHT22;1945;52.036;8.614;2023-04-15T08:22:45;7.60;1.00
3860;DHT22;1945;52.036;8.614;2023-04-15T08:25:16;8.10;1.00
3860;DHT22;1945;52.036;8.614;2023-04-15T08:27:43;7.60;1.00
3860;DHT22;1945;52.036;8.614;2023-04-15T08:30:10;7.60;1.00
3860;DHT22;1945;52.036;8.614;2023-04-15T08:32:37;7.60;1.00
3860;DHT22;1945;52.036;8.614;2023-04-15T08:35:06;8.20;1.00
3860;DHT22;1945;52.036;8.614;2023-04-15T08:37:33;7.60;1.00
3860;DHT22;1945;52.036;8.614;2023-04-15T08:40:00;8.10;1.00
3860;DHT22;1945;52.036;8.614;2023-04-15T08:42:30;7.70;1.00
3860;DHT22;1945;52.036;8.614;2023-04-15T08:44:58;8.30;1.00
3860;DHT22;1945;52.036;8.614;2023-04-15T08:47:29;7.90;1.00
3860;DHT22;1945;52.036;8.614;2023-04-15T08:49:57;8.40;1.00
3860;DHT22;1945;52.036;8.614;2023-04-15T08:52:25;8.30;1.00
3860;DHT22;1945;52.036;8.614;2023-04-15T08:54:56;8.50;1.00
3860;DHT22;1945;52.036;8.614;2023-04-15T08:57:24;8.20;1.00
3860;DHT22;1945;52.036;8.614;2023-04-15T08:59:52;8.10;1.00
3860;DHT22;1945;52.036;8.614;2023-04-15T09:02:20;8.80;1.00
3860;DHT22;1945;52.036;8.614;2023-04-15T09:04:47;8.30;1.00
3860;DHT22;1945;52.036;8.614;2023-04-15T09:07:14;8.80;1.00
3860;DHT22;1945;52.036;8.614;2023-04-15T09:09:43;8.80;1.00
3860;DHT22;1945;52.036;8.614;2023-04-15T09:12:12;8.50;1.00
3860;DHT22;1945;52.036;8.614;2023-04-15T09:14:42;8.30;1.00
3860;DHT22;1945;52.036;8.614;2023-04-15T09:17:10;8.80;1.00
3860;DHT22;1945;52.036;8.614;2023-04-15T09:19:37;8.30;1.00
3860;DHT22;1945;52.036;8.614;2023-04-15T09:22:04;8.70;1.00
3860;DHT22;1945;52.036;8.614;2023-04-15T09:24:36;8.30;1.00
3860;DHT22;1945;52.036;8.614;2023-04-15T09:27:05;8.40;1.00
3860;DHT22;1945;52.036;8.614;2023-04-15T09:29:32;8.70;1.00
3860;DHT22;1945;52.036;8.614;2023-04-15T09:32:09;8.40;1.00
3860;DHT22;1945;52.036;8.614;2023-04-15T09:34:36;8.80;1.00
3860;DHT22;1945;52.036;8.614;2023-04-15T09:37:03;8.40;1.00
3860;DHT22;1945;52.036;8.614;2023-04-15T09:39:44;8.80;1.00
3860;DHT22;1945;52.036;8.614;2023-04-15T09:42:26;9.00;1.00
3860;DHT22;1945;52.036;8.614;2023-04-15T09:44:53;8.70;1.00
3860;DHT22;1945;52.036;8.614;2023-04-15T09:47:30;8.40;1.00
3860;DHT22;1945;52.036;8.614;2023-04-15T09:49:57;9.00;1.00
3860;DHT22;1945;52.036;8.614;2023-04-15T09:52:24;8.40;1.00
3860;DHT22;1945;52.036;8.614;2023-04-15T09:54:53;8.40;1.00
3860;DHT22;1945;52.036;8.614;2023-04-15T09:57:21;8.40;1.00
3860;DHT22;1945;52.036;8.614;2023-04-15T09:59:49;8.70;1.00
3860;DHT22;1945;52.036;8.614;2023-04-15T10:02:18;8.90;1.00
3860;DHT22;1945;52.036;8.614;2023-04-15T10:04:47;8.80;1.00
3860;DHT22;1945;52.036;8.614;2023-04-15T10:07:16;8.40;1.00
3860;DHT22;1945;52.036;8.614;2023-04-15T10:09:45;8.50;1.00
3860;DHT22;1945;52.036;8.614;2023-04-15T10:12:12;8.90;1.00
3860;DHT22;1945;52.036;8.614;2023-04-15T10:14:41;9.00;1.00
3860;DHT22;1945;52.036;8.614;2023-04-15T10:17:11;8.90;1.00
3860;DHT22;1945;52.036;8.614;2023-04-15T10:19:39;8.40;1.00
3860;DHT22;1945;52.036;8.614;2023-04-15T10:22:07;8.50;1.00
3860;DHT22;1945;52.036;8.614;2023-04-15T10:24:34;9.00;1.00
3860;DHT22;1945;52.036;8.614;2023-04-15T10:27:05;8.50;1.00
3860;DHT22;1945;52.036;8.614;2023-04-15T10:29:32;8.50;3.20
3860;DHT22;1945;52.036;8.614;2023-04-15T10:32:00;9.10;4.90
3860;DHT22;1945;52.036;8.614;2023-04-15T10:34:30;8.60;1.00
3860;DHT22;1945;52.036;8.614;2023-04-15T10:37:00;9.10;1.00
3860;DHT22;1945;52.036;8.614;2023-04-15T10:39:41;8.50;1.00
3860;DHT22;1945;52.036;8.614;2023-04-15T10:42:10;8.60;1.00
3860;DHT22;1945;52.036;8.614;2023-04-15T10:44:37;8.60;4.50
3860;DHT22;1945;52.036;8.614;2023-04-15T10:47:08;8.50;1.00
3860;DHT22;1945;52.036;8.614;2023-04-15T10:49:44;9.00;11.30
3860;DHT22;1945;52.036;8.614;2023-04-15T10:52:12;9.00;25.00
3860;DHT22;1945;52.036;8.614;2023-04-15T10:54:40;8.90;24.60
3860;DHT22;1945;52.036;8.614;2023-04-15T10:57:08;8.90;27.10
3860;DHT22;1945;52.036;8.614;2023-04-15T10:59:37;8.60;34.20
3860;DHT22;1945;52.036;8.614;2023-04-15T11:02:05;9.00;64.10
3860;DHT22;1945;52.036;8.614;2023-04-15T11:04:54;9.00;35.10
3860;DHT22;1945;52.036;8.614;2023-04-15T11:07:46;9.00;33.80
3860;DHT22;1945;52.036;8.614;2023-04-15T11:10:51;8.60;50.80
3860;DHT22;1945;52.036;8.614;2023-04-15T11:13:25;8.60;55.80
3860;DHT22;1945;52.036;8.614;2023-04-15T11:15:58;8.60;56.10
3860;DHT22;1945;52.036;8.614;2023-04-15T11:18:27;9.00;72.30
3860;DHT22;1945;52.036;8.614;2023-04-15T11:20:58;8.60;50.80
3860;DHT22;1945;52.036;8.614;2023-04-15T11:23:36;8.50;59.30
3860;DHT22;1945;52.036;8.614;2023-04-15T11:26:09;8.80;77.10
3860;DHT22;1945;52.036;8.614;2023-04-15T11:28:38;9.20;70.50
3860;DHT22;1945;52.036;8.614;2023-04-15T11:31:08;8.70;78.50
3860;DHT22;1945;52.036;8.614;2023-04-15T11:33:36;8.70;79.80
3860;DHT22;1945;52.036;8.614;2023-04-15T11:36:04;8.70;58.60
3860;DHT22;1945;52.036;8.614;2023-04-15T11:38:33;8.70;71.60
3860;DHT22;1945;52.036;8.614;2023-04-15T11:41:02;9.00;42.30
3860;DHT22;1945;52.036;8.614;2023-04-15T11:43:31;8.70;64.20
3860;DHT22;1945;52.036;8.614;2023-04-15T11:46:01;8.70;60.80
3860;DHT22;1945;52.036;8.614;2023-04-15T11:48:29;8.70;80.30
3860;DHT22;1945;52.036;8.614;2023-04-15T11:50:59;9.10;54.30
3860;DHT22;1945;52.036;8.614;2023-04-15T11:53:37;8.70;59.70
3860;DHT22;1945;52.036;8.614;2023-04-15T11:56:06;9.10;78.10
3860;DHT22;1945;52.036;8.614;2023-04-15T11:58:34;8.70;94.60
3860;DHT22;1945;52.036;8.614;2023-04-15T12:01:02;8.70;91.10
3860;DHT22;1945;52.036;8.614;2023-04-15T12:03:30;8.70;99.90
3860;DHT22;1945;52.036;8.614;2023-04-15T12:06:08;9.20;80.30
3860;DHT22;1945;52.036;8.614;2023-04-15T12:08:52;8.70;80.60
3860;DHT22;1945;52.036;8.614;2023-04-15T12:11:33;8.70;90.40
3860;DHT22;1945;52.036;8.614;2023-04-15T12:14:10;8.70;91.90
3860;DHT22;1945;52.036;8.614;2023-04-15T12:16:40;9.20;99.40
3860;DHT22;1945;52.036;8.614;2023-04-15T12:19:09;9.20;88.50
3860;DHT22;1945;52.036;8.614;2023-04-15T12:21:37;8.70;91.60
3860;DHT22;1945;52.036;8.614;2023-04-15T12:24:07;8.80;99.90
3860;DHT22;1945;52.036;8.614;2023-04-15T12:26:42;8.80;85.90
3860;DHT22;1945;52.036;8.614;2023-04-15T12:29:10;8.80;95.00
3860;DHT22;1945;52.036;8.614;2023-04-15T12:31:55;9.30;63.90
3860;DHT22;1945;52.036;8.614;2023-04-15T12:34:49;8.80;65.40
3860;DHT22;1945;52.036;8.614;2023-04-15T12:37:21;8.80;93.70
3860;DHT22;1945;52.036;8.614;2023-04-15T12:39:49;9.20;91.80
3860;DHT22;1945;52.036;8.614;2023-04-15T12:42:18;8.80;46.10
3860;DHT22;1945;52.036;8.614;2023-04-15T12:44:47;8.80;77.20
3860;DHT22;1945;52.036;8.614;2023-04-15T12:47:13;8.80;82.50
3860;DHT22;1945;52.036;8.614;2023-04-15T12:49:40;8.80;86.80
3860;DHT22;1945;52.036;8.614;2023-04-15T12:52:07;8.80;93.30
3860;DHT22;1945;52.036;8.614;2023-04-15T12:54:34;9.20;89.50
3860;DHT22;1945;52.036;8.614;2023-04-15T12:57:03;9.30;52.90
3860;DHT22;1945;52.036;8.614;2023-04-15T12:59:30;8.80;58.30
3860;DHT22;1945;52.036;8.614;2023-04-15T13:01:56;8.80;80.60
3860;DHT22;1945;52.036;8.614;2023-04-15T13:04:25;9.40;80.80
3860;DHT22;1945;52.036;8.614;2023-04-15T13:06:54;8.80;92.00
3860;DHT22;1945;52.036;8.614;2023-04-15T13:09:22;8.80;99.90
3860;DHT22;1945;52.036;8.614;2023-04-15T13:11:48;9.50;99.90
3860;DHT22;1945;52.036;8.614;2023-04-15T13:14:17;9.30;99.90
3860;DHT22;1945;52.036;8.614;2023-04-15T13:16:43;8.80;99.90
3860;DHT22;1945;52.036;8.614;2023-04-15T13:19:10;8.80;99.90
3860;DHT22;1945;52.036;8.614;2023-04-15T13:21:37;8.70;99.90
3860;DHT22;1945;52.036;8.614;2023-04-15T13:24:04;9.10;99.90
3860;DHT22;1945;52.036;8.614;2023-04-15T13:26:31;8.80;99.90
3860;DHT22;1945;52.036;8.614;2023-04-15T13:28:58;8.70;99.90
3860;DHT22;1945;52.036;8.614;2023-04-15T13:31:26;8.80;99.90
3860;DHT22;1945;52.036;8.614;2023-04-15T13:33:53;9.30;99.90
3860;DHT22;1945;52.036;8.614;2023-04-15T13:36:20;8.80;99.90
3860;DHT22;1945;52.036;8.614;2023-04-15T13:38:47;9.30;99.90
3860;DHT22;1945;52.036;8.614;2023-04-15T13:41:13;8.90;99.90
3860;DHT22;1945;52.036;8.614;2023-04-15T13:43:40;8.80;99.90
3860;DHT22;1945;52.036;8.614;2023-04-15T13:46:07;8.80;99.90
3860;DHT22;1945;52.036;8.614;2023-04-15T13:48:35;8.70;99.90
3860;DHT22;1945;52.036;8.614;2023-04-15T13:51:02;8.80;99.90
3860;DHT22;1945;52.036;8.614;2023-04-15T13:53:29;8.80;99.90
3860;DHT22;1945;52.036;8.614;2023-04-15T13:55:56;9.30;99.90
3860;DHT22;1945;52.036;8.614;2023-04-15T13:58:23;9.30;99.90
3860;DHT22;1945;52.036;8.614;2023-04-15T14:00:50;8.80;99.90
3860;DHT22;1945;52.036;8.614;2023-04-15T14:03:16;9.20;99.90
3860;DHT22;1945;52.036;8.614;2023-04-15T14:05:44;9.30;99.90
3860;DHT22;1945;52.036;8.614;2023-04-15T14:08:11;8.80;99.90
3860;DHT22;1945;52.036;8.614;2023-04-15T14:10:38;8.80;99.90
3860;DHT22;1945;52.036;8.614;2023-04-15T14:13:06;8.80;99.90
3860;DHT22;1945;52.036;8.614;2023-04-15T14:15:33;8.80;99.90
3860;DHT22;1945;52.036;8.614;2023-04-15T14:17:59;9.40;99.90
3860;DHT22;1945;52.036;8.614;2023-04-15T14:20:26;8.80;99.90
3860;DHT22;1945;52.036;8.614;2023-04-15T14:22:54;9.30;99.90
3860;DHT22;1945;52.036;8.614;2023-04-15T14:25:21;8.80;99.90
3860;DHT22;1945;52.036;8.614;2023-04-15T14:27:48;9.40;99.90
3860;DHT22;1945;52.036;8.614;2023-04-15T14:30:15;8.80;99.90
3860;DHT22;1945;52.036;8.614;2023-04-15T14:32:43;8.90;99.90
3860;DHT22;1945;52.036;8.614;2023-04-15T14:35:10;8.90;99.90
3860;DHT22;1945;52.036;8.614;2023-04-15T14:37:40;8.90;99.90
3860;DHT22;1945;52.036;8.614;2023-04-15T14:40:09;8.90;99.90
3860;DHT22;1945;52.036;8.614;2023-04-15T14:42:35;8.90;99.90
3860;DHT22;1945;52.036;8.614;2023-04-15T14:45:02;9.40;99.90
3860;DHT22;1945;52.036;8.614;2023-04-15T14:47:30;8.90;99.90
3860;DHT22;1945;52.036;8.614;2023-04-15T14:49:56;9.00;99.90
3860;DHT22;1945;52.036;8.614;2023-04-15T14:52:25;9.00;99.90
3860;DHT22;1945;52.036;8.614;2023-04-15T14:55:06;8.90;99.90
3860;DHT22;1945;52.036;8.614;2023-04-15T14:57:34;9.00;99.90
3860;DHT22;1945;52.036;8.614;2023-04-15T15:00:05;9.40;99.90
3860;DHT22;1945;52.036;8.614;2023-04-15T15:02:38;9.40;99.90
3860;DHT22;1945;52.036;8.614;2023-04-15T15:05:08;9.00;99.90
3860;DHT22;1945;52.036;8.614;2023-04-15T15:07:37;9.10;99.90
3860;DHT22;1945;52.036;8.614;2023-04-15T15:10:08;9.10;99.90
3860;DHT22;1945;52.036;8.614;2023-04-15T15:12:36;9.30;99.90
3860;DHT22;1945;52.036;8.614;2023-04-15T15:15:04;9.50;99.90
3860;DHT22;1945;52.036;8.614;2023-04-15T15:17:34;9.00;99.90
3860;DHT22;1945;52.036;8.614;2023-04-15T15:23:21;9.10;99.90
3860;DHT22;1945;52.036;8.614;2023-04-15T15:25:53;9.10;99.90
3860;DHT22;1945;52.036;8.614;2023-04-15T15:28:26;9.10;99.90
3860;DHT22;1945;52.036;8.614;2023-04-15T15:30:57;9.10;99.90
3860;DHT22;1945;52.036;8.614;2023-04-15T15:33:24;9.50;99.90
3860;DHT22;1945;52.036;8.614;2023-04-15T15:35:52;9.10;99.90
3860;DHT22;1945;52.036;8.614;2023-04-15T15:38:44;9.40;99.90
3860;DHT22;1945;52.036;8.614;2023-04-15T15:41:53;9.10;99.90
3860;DHT22;1945;52.036;8.614;2023-04-15T15:47:52;9.70;99.90
3860;DHT22;1945;52.036;8.614;2023-04-15T15:53:55;9.20;99.90
3860;DHT22;1945;52.036;8.614;2023-04-15T15:56:24;9.50;99.90
3860;DHT22;1945;52.036;8.614;2023-04-15T15:58:51;9.20;99.90
3860;DHT22;1945;52.036;8.614;2023-04-15T16:01:20;9.20;99.90
3860;DHT22;1945;52.036;8.614;2023-04-15T16:03:57;9.20;99.90
3860;DHT22;1945;52.036;8.614;2023-04-15T16:06:46;9.10;99.90
3860;DHT22;1945;52.036;8.614;2023-04-15T16:09:55;9.60;99.90
3860;DHT22;1945;52.036;8.614;2023-04-15T16:12:48;9.10;99.90
3860;DHT22;1945;52.036;8.614;2023-04-15T16:19:36;9.20;99.90
3860;DHT22;1945;52.036;8.614;2023-04-15T16:22:03;9.20;99.90
3860;DHT22;1945;52.036;8.614;2023-04-15T16:25:19;9.30;99.90
3860;DHT22;1945;52.036;8.614;2023-04-15T16:31:54;9.40;99.90
3860;DHT22;1945;52.036;8.614;2023-04-15T16:34:34;9.40;99.90
3860;DHT22;1945;52.036;8.614;2023-04-15T16:37:17;9.40;99.90
3860;DHT22;1945;52.036;8.614;2023-04-15T16:40:08;9.40;99.90
3860;DHT22;1945;52.036;8.614;2023-04-15T16:42:35;9.50;99.90
3860;DHT22;1945;52.036;8.614;2023-04-15T16:45:37;9.50;99.90
3860;DHT22;1945;52.036;8.614;2023-04-15T16:49:15;9.50;99.90
3860;DHT22;1945;52.036;8.614;2023-04-15T16:52:04;9.40;99.90
3860;DHT22;1945;52.036;8.614;2023-04-15T17:11:49;9.50;99.90
3860;DHT22;1945;52.036;8.614;2023-04-15T17:14:15;9.50;99.90
3860;DHT22;1945;52.036;8.614;2023-04-15T17:16:42;9.50;99.90